Keysburg, Kentucky
Current Conditions -  °F | °C
As of 10:55 AM on Tuesday 27 Jan 2015 (Local Time) from KM91 Reporting Station
Overcast Overcast  
Wind Chill: 30°   Ceiling: 1600
Heat Index: 36°   Visibility: 10mi
Dew Point: 34°   Wind: 7mph
Humidity: 93%   Direction: 30°NNE
Pressure: 30.07"   Gusts: NA
Location:  36.7099°N, 87.0897°W
Report Text: KM91 271655Z AUTO 03006KT 10SM OVC016 02/01 A3007 RMK
Loading
Personal Weather Stations






























Interactive Weather Map New forecast layout! Learn more

10-Day Weather Forecast

Advertisements
Track Severe Weather on mobile